createdAt,value
2022-11-07T00:00:20.226Z,100214.94
2022-11-07T00:02:49.716Z,100218.78
2022-11-07T00:05:17.205Z,100226.41
2022-11-07T00:07:45.128Z,100223.66
2022-11-07T00:10:15.218Z,100218.72
2022-11-07T00:12:44.703Z,100224.25
2022-11-07T00:15:16.159Z,100230.25
2022-11-07T00:17:46.096Z,100226.13
2022-11-07T00:20:15.218Z,100233.25
2022-11-07T00:22:44.397Z,100237.56
2022-11-07T00:25:12.779Z,100247.13
2022-11-07T00:27:42.655Z,100241.38
2022-11-07T00:30:13.132Z,100245.94
2022-11-07T00:32:41.861Z,100244.13
2022-11-07T00:35:09.780Z,100247.69
2022-11-07T00:37:37.505Z,100255.28
2022-11-07T00:40:06.688Z,100251.34
2022-11-07T00:42:34.735Z,100245.00
2022-11-07T00:45:04.557Z,100242.09
2022-11-07T00:47:33.436Z,100249.19
2022-11-07T00:50:02.103Z,100242.81
2022-11-07T00:52:31.326Z,100241.59
2022-11-07T00:54:59.275Z,100233.44
2022-11-07T00:57:29.994Z,100243.91
2022-11-07T01:00:02.266Z,100238.81
2022-11-07T01:02:32.815Z,100242.34
2022-11-07T01:05:11.133Z,100239.44
2022-11-07T01:07:50.029Z,100240.34
2022-11-07T01:10:19.939Z,100241.44
2022-11-07T01:12:49.480Z,100240.69
2022-11-07T01:15:17.674Z,100250.97
2022-11-07T01:17:47.823Z,100251.50
2022-11-07T01:20:18.603Z,100252.56
2022-11-07T01:22:48.484Z,100241.06
2022-11-07T01:25:17.915Z,100238.84
2022-11-07T01:27:48.767Z,100234.50
2022-11-07T01:30:17.795Z,100236.87
2022-11-07T01:32:46.510Z,100236.47
2022-11-07T01:35:16.612Z,100236.34
2022-11-07T01:37:45.109Z,100240.59
2022-11-07T01:40:15.166Z,100242.53
2022-11-07T01:42:44.857Z,100244.25
2022-11-07T01:45:22.151Z,100255.38
2022-11-07T01:47:51.269Z,100250.31
2022-11-07T01:50:24.692Z,100251.56
2022-11-07T01:52:57.213Z,100258.88
2022-11-07T01:55:30.230Z,100256.28
2022-11-07T01:58:03.547Z,100253.78
2022-11-07T02:00:34.559Z,100251.19
2022-11-07T02:03:09.194Z,100241.47
2022-11-07T02:05:44.446Z,100243.31
2022-11-07T02:08:14.282Z,100249.63
2022-11-07T02:10:43.338Z,100252.94
2022-11-07T02:13:19.347Z,100257.50
2022-11-07T02:15:47.765Z,100255.53
2022-11-07T02:18:18.162Z,100250.09
2022-11-07T02:20:47.012Z,100242.31
2022-11-07T02:23:26.661Z,100246.94
2022-11-07T02:25:56.700Z,100256.12
2022-11-07T02:28:29.962Z,100246.81
2022-11-07T02:30:59.794Z,100246.47
2022-11-07T02:33:29.351Z,100246.72
2022-11-07T02:36:00.055Z,100244.31
2022-11-07T02:38:37.479Z,100242.19
2022-11-07T02:41:10.134Z,100236.25
2022-11-07T02:43:43.158Z,100232.84
2022-11-07T02:46:12.311Z,100238.88
2022-11-07T02:48:44.090Z,100227.88
2022-11-07T02:51:14.873Z,100226.53
2022-11-07T02:53:43.748Z,100228.38
2022-11-07T02:56:12.703Z,100231.06
2022-11-07T02:58:41.446Z,100238.38
2022-11-07T03:01:12.351Z,100235.41
2022-11-07T03:03:46.418Z,100238.34
2022-11-07T03:06:20.265Z,100231.22
2022-11-07T03:08:48.534Z,100232.50
2022-11-07T03:11:21.852Z,100232.59
2022-11-07T03:13:52.009Z,100224.84
2022-11-07T03:16:21.880Z,100236.97
2022-11-07T03:18:49.922Z,100238.19
2022-11-07T03:21:19.561Z,100240.06
2022-11-07T03:23:49.243Z,100238.78
2022-11-07T03:26:18.175Z,100238.44
2022-11-07T03:28:46.382Z,100242.62
2022-11-07T03:31:17.017Z,100241.44
2022-11-07T03:33:45.233Z,100235.31
2022-11-07T03:36:14.111Z,100238.88
2022-11-07T03:38:44.031Z,100249.22
2022-11-07T03:41:17.440Z,100247.03
2022-11-07T03:43:47.547Z,100246.28
2022-11-07T03:46:17.743Z,100239.91
2022-11-07T03:48:45.578Z,100244.66
2022-11-07T03:51:16.723Z,100249.75
2022-11-07T03:53:46.116Z,100244.22
2022-11-07T03:56:15.940Z,100249.34
2022-11-07T03:58:44.809Z,100246.53
2022-11-07T04:01:13.499Z,100250.66
2022-11-07T04:03:42.910Z,100260.78
2022-11-07T04:06:13.757Z,100258.69
2022-11-07T04:08:43.047Z,100260.63
2022-11-07T04:11:32.450Z,100261.22
2022-11-07T04:14:20.491Z,100277.41
2022-11-07T04:17:07.448Z,100271.41
2022-11-07T04:19:37.068Z,100265.44
2022-11-07T04:22:04.548Z,100268.75
2022-11-07T04:24:33.521Z,100257.50
2022-11-07T04:27:22.006Z,100258.19
2022-11-07T04:29:51.321Z,100254.94
2022-11-07T04:32:21.222Z,100256.56
2022-11-07T04:34:53.151Z,100249.41
2022-11-07T04:37:21.032Z,100250.03
2022-11-07T04:39:49.387Z,100252.75
2022-11-07T04:42:16.888Z,100250.22
2022-11-07T04:44:47.466Z,100237.97
2022-11-07T04:47:16.494Z,100226.63
2022-11-07T04:49:46.237Z,100241.31
2022-11-07T04:52:14.632Z,100240.53
2022-11-07T04:54:44.119Z,100249.47
2022-11-07T04:57:13.774Z,100254.56
2022-11-07T04:59:42.786Z,100248.47
2022-11-07T05:02:13.292Z,100250.19
2022-11-07T05:04:42.664Z,100257.13
2022-11-07T05:07:12.243Z,100258.94
2022-11-07T05:09:41.009Z,100254.56
2022-11-07T05:12:10.561Z,100255.13
2022-11-07T05:14:40.789Z,100261.03
2022-11-07T05:17:15.227Z,100260.31
2022-11-07T05:19:45.197Z,100259.91
2022-11-07T05:22:33.068Z,100247.97
2022-11-07T05:25:04.009Z,100251.09
2022-11-07T05:27:32.262Z,100259.59
2022-11-07T05:30:01.631Z,100253.72
2022-11-07T05:32:30.037Z,100262.81
2022-11-07T05:34:59.518Z,100259.12
2022-11-07T05:37:29.129Z,100260.84
2022-11-07T05:40:00.449Z,100255.88
2022-11-07T05:42:30.727Z,100272.31
2022-11-07T05:45:01.791Z,100274.09
2022-11-07T05:47:30.944Z,100282.50
2022-11-07T05:50:01.783Z,100280.25
2022-11-07T05:52:32.849Z,100286.94
2022-11-07T05:55:01.991Z,100307.69
2022-11-07T05:57:32.349Z,100312.38
2022-11-07T06:00:03.601Z,100316.38
2022-11-07T06:02:42.560Z,100315.31
2022-11-07T06:05:13.551Z,100311.50
2022-11-07T06:07:43.908Z,100307.34
2022-11-07T06:10:14.055Z,100320.31
2022-11-07T06:12:42.860Z,100328.66
2022-11-07T06:15:12.239Z,100329.69
2022-11-07T06:17:42.548Z,100330.12
2022-11-07T06:20:12.463Z,100326.78
2022-11-07T06:22:42.448Z,100334.44
2022-11-07T06:25:10.957Z,100348.50
2022-11-07T06:27:38.975Z,100346.88
2022-11-07T06:30:10.528Z,100346.56
2022-11-07T06:32:41.235Z,100361.06
2022-11-07T06:35:12.638Z,100371.78
2022-11-07T06:37:42.687Z,100366.16
2022-11-07T06:40:15.344Z,100375.28
2022-11-07T06:42:43.047Z,100375.87
2022-11-07T06:45:13.222Z,100370.03
2022-11-07T06:47:42.836Z,100377.22
2022-11-07T06:50:11.903Z,100377.16
2022-11-07T06:52:40.844Z,100376.13
2022-11-07T06:55:10.949Z,100383.03
2022-11-07T06:57:38.812Z,100379.66
2022-11-07T07:00:11.082Z,100381.59
2022-11-07T07:05:31.011Z,100381.22
2022-11-07T07:08:04.453Z,100383.53
2022-11-07T07:10:40.826Z,100386.22
2022-11-07T07:13:08.201Z,100388.81
2022-11-07T07:15:50.553Z,100399.41
2022-11-07T07:18:21.416Z,100395.78
2022-11-07T07:20:51.942Z,100398.69
2022-11-07T07:23:22.309Z,100397.47
2022-11-07T07:25:52.918Z,100398.19
2022-11-07T07:28:22.341Z,100391.88
2022-11-07T07:30:52.275Z,100395.59
2022-11-07T07:33:21.476Z,100396.34
2022-11-07T07:35:50.607Z,100406.19
2022-11-07T07:38:20.800Z,100402.53
2022-11-07T07:40:49.648Z,100398.41
2022-11-07T07:43:18.782Z,100396.94
2022-11-07T07:45:48.056Z,100406.06
2022-11-07T07:48:18.274Z,100403.09
2022-11-07T07:50:52.035Z,100403.06
2022-11-07T07:53:22.353Z,100403.72
2022-11-07T07:55:58.553Z,100408.69
2022-11-07T07:58:28.861Z,100406.44
2022-11-07T08:00:58.971Z,100411.72
2022-11-07T08:03:32.068Z,100404.25
2022-11-07T08:06:05.553Z,100404.97
2022-11-07T08:08:38.146Z,100407.41
2022-11-07T08:11:09.148Z,100400.94
2022-11-07T08:13:40.698Z,100406.72
2022-11-07T08:16:10.669Z,100409.78
2022-11-07T08:18:41.849Z,100402.44
2022-11-07T08:21:12.583Z,100405.72
2022-11-07T08:23:42.330Z,100399.94
2022-11-07T08:26:10.619Z,100394.81
2022-11-07T08:28:39.723Z,100401.25
2022-11-07T08:31:15.661Z,100408.00
2022-11-07T08:33:45.765Z,100405.09
2022-11-07T08:36:15.655Z,100407.66
2022-11-07T08:38:44.552Z,100396.87
2022-11-07T08:41:15.402Z,100395.22
2022-11-07T08:43:49.565Z,100406.41
2022-11-07T08:46:19.143Z,100400.84
2022-11-07T08:48:48.902Z,100399.72
2022-11-07T08:51:18.503Z,100399.06
2022-11-07T08:53:46.613Z,100406.75
2022-11-07T08:56:16.419Z,100402.97
2022-11-07T08:58:46.558Z,100400.44
2022-11-07T09:01:16.161Z,100415.16
2022-11-07T09:03:53.245Z,100412.38
2022-11-07T09:06:25.959Z,100412.16
2022-11-07T09:08:56.895Z,100414.16
2022-11-07T09:11:28.537Z,100417.31
2022-11-07T09:13:59.453Z,100414.28
2022-11-07T09:16:29.002Z,100422.84
2022-11-07T09:18:57.500Z,100423.78
2022-11-07T09:21:29.656Z,100422.28
2022-11-07T09:23:58.501Z,100424.00
2022-11-07T09:26:28.483Z,100421.94
2022-11-07T09:29:09.274Z,100424.94
2022-11-07T09:31:40.578Z,100420.44
2022-11-07T09:34:10.871Z,100427.41
2022-11-07T09:36:40.665Z,100422.28
2022-11-07T09:39:09.591Z,100426.53
2022-11-07T09:42:06.151Z,100422.00
2022-11-07T09:45:08.974Z,100427.72
2022-11-07T09:47:41.888Z,100430.06
2022-11-07T09:50:17.243Z,100424.69
2022-11-07T09:53:02.896Z,100422.81
2022-11-07T09:55:42.286Z,100422.81
2022-11-07T09:58:35.948Z,100427.34
2022-11-07T10:01:12.269Z,100419.41
2022-11-07T10:04:10.209Z,100428.75
2022-11-07T10:06:39.328Z,100419.50
2022-11-07T10:09:19.154Z,100422.09
2022-11-07T10:11:46.970Z,100426.09
2022-11-07T10:14:56.833Z,100425.41
2022-11-07T10:17:57.934Z,100422.25
2022-11-07T10:20:43.458Z,100416.09
2022-11-07T10:23:15.802Z,100418.19
2022-11-07T10:26:01.138Z,100406.91
2022-11-07T10:28:32.376Z,100410.16
2022-11-07T10:31:07.816Z,100406.63
2022-11-07T10:33:54.602Z,100402.31
2022-11-07T10:36:30.554Z,100411.03
2022-11-07T10:39:03.488Z,100399.41
2022-11-07T10:41:34.535Z,100405.72
2022-11-07T10:44:10.619Z,100409.97
2022-11-07T10:46:43.495Z,100405.72
2022-11-07T10:49:26.560Z,100408.84
2022-11-07T10:52:10.876Z,100398.75
2022-11-07T10:54:41.439Z,100398.25
2022-11-07T10:57:18.873Z,100390.44
2022-11-07T10:59:56.822Z,100390.13
2022-11-07T11:02:25.820Z,100380.31
2022-11-07T11:04:56.581Z,100379.78
2022-11-07T11:07:28.698Z,100373.75
2022-11-07T11:10:00.174Z,100375.75
2022-11-07T11:12:35.054Z,100371.44
2022-11-07T11:15:31.387Z,100362.09
2022-11-07T11:18:20.006Z,100362.00
2022-11-07T11:21:07.511Z,100368.72
2022-11-07T11:23:41.793Z,100364.62
2022-11-07T11:27:07.367Z,100364.66
2022-11-07T11:29:43.315Z,100362.41
2022-11-07T11:32:22.616Z,100356.44
2022-11-07T11:35:00.383Z,100361.22
2022-11-07T11:37:29.275Z,100366.59
2022-11-07T11:39:57.879Z,100363.59
2022-11-07T11:42:40.488Z,100352.06
2022-11-07T11:45:21.697Z,100354.25
2022-11-07T11:48:03.817Z,100354.09
2022-11-07T11:50:47.445Z,100356.63
2022-11-07T11:53:22.342Z,100367.41
2022-11-07T11:56:01.540Z,100361.00
2022-11-07T11:59:12.544Z,100356.94
2022-11-07T12:02:16.511Z,100354.31
2022-11-07T12:05:16.918Z,100353.22
2022-11-07T12:08:25.586Z,100344.69
2022-11-07T12:11:22.150Z,100346.22
2022-11-07T12:14:29.400Z,100352.59
2022-11-07T12:17:12.118Z,100342.13
2022-11-07T12:20:01.163Z,100352.41
2022-11-07T12:22:48.466Z,100342.19
2022-11-07T12:25:50.874Z,100345.06
2022-11-07T12:28:39.170Z,100342.50
2022-11-07T12:31:48.795Z,100342.84
2022-11-07T12:35:13.761Z,100344.97
2022-11-07T12:37:52.693Z,100335.94
2022-11-07T12:40:36.761Z,100337.41
2022-11-07T12:43:32.091Z,100336.84
2022-11-07T12:46:02.314Z,100339.06
2022-11-07T12:48:36.573Z,100331.63
2022-11-07T12:51:26.029Z,100327.03
2022-11-07T12:54:16.181Z,100330.88
2022-11-07T12:57:21.223Z,100334.22
2022-11-07T13:00:01.245Z,100331.56
2022-11-07T13:02:52.523Z,100333.00
2022-11-07T13:05:53.533Z,100325.16
2022-11-07T13:08:40.869Z,100330.78
2022-11-07T13:11:41.062Z,100336.06
2022-11-07T13:14:23.968Z,100324.03
2022-11-07T13:17:04.436Z,100329.16
2022-11-07T13:19:37.300Z,100327.19
2022-11-07T13:22:15.260Z,100321.87
2022-11-07T13:25:06.093Z,100326.44
2022-11-07T13:27:39.510Z,100323.41
2022-11-07T13:30:12.033Z,100324.06
2022-11-07T13:32:43.328Z,100312.31
2022-11-07T13:35:30.370Z,100312.94
2022-11-07T13:38:08.607Z,100313.88
2022-11-07T13:40:44.827Z,100321.81
2022-11-07T13:43:19.712Z,100329.34
2022-11-07T13:45:55.515Z,100317.50
2022-11-07T13:48:50.652Z,100313.69
2022-11-07T13:51:35.712Z,100306.56
2022-11-07T13:54:12.265Z,100311.25
2022-11-07T13:57:03.708Z,100309.59
2022-11-07T13:59:47.269Z,100301.34
2022-11-07T14:02:32.704Z,100313.94
2022-11-07T14:05:16.273Z,100302.56
2022-11-07T14:07:55.198Z,100299.50
2022-11-07T14:10:41.561Z,100307.41
2022-11-07T14:13:13.135Z,100309.41
2022-11-07T14:15:50.478Z,100309.38
2022-11-07T14:18:23.741Z,100310.94
2022-11-07T14:20:56.999Z,100312.97
2022-11-07T14:23:30.334Z,100325.91
2022-11-07T14:26:05.814Z,100334.19
2022-11-07T14:28:37.668Z,100332.91
2022-11-07T14:31:12.828Z,100330.31
2022-11-07T14:33:51.460Z,100331.41
2022-11-07T14:36:21.177Z,100332.19
2022-11-07T14:39:04.473Z,100332.25
2022-11-07T14:41:38.241Z,100334.63
2022-11-07T14:44:07.027Z,100325.47
2022-11-07T14:46:38.153Z,100332.63
2022-11-07T14:49:07.236Z,100333.28
2022-11-07T14:51:38.741Z,100333.34
2022-11-07T14:54:18.868Z,100336.22
2022-11-07T14:57:00.305Z,100334.78
2022-11-07T14:59:34.286Z,100337.81
2022-11-07T15:02:23.237Z,100339.97
2022-11-07T15:04:55.552Z,100339.13
2022-11-07T15:07:38.207Z,100345.44
2022-11-07T15:10:24.756Z,100350.44
2022-11-07T15:12:57.087Z,100344.75
2022-11-07T15:15:37.353Z,100350.44
2022-11-07T15:18:07.699Z,100347.06
2022-11-07T15:20:46.418Z,100339.75
2022-11-07T15:23:20.478Z,100335.75
2022-11-07T15:26:05.302Z,100345.37
2022-11-07T15:28:49.562Z,100341.19
2022-11-07T15:31:33.896Z,100335.94
2022-11-07T15:34:04.586Z,100345.81
2022-11-07T15:36:36.215Z,100352.63
2022-11-07T15:39:14.402Z,100349.91
2022-11-07T15:41:45.310Z,100351.75
2022-11-07T15:44:17.498Z,100361.28
2022-11-07T15:46:47.903Z,100356.16
2022-11-07T15:49:28.755Z,100358.66
2022-11-07T15:51:59.463Z,100356.06
2022-11-07T15:54:29.107Z,100359.69
2022-11-07T15:57:01.748Z,100360.62
2022-11-07T15:59:34.666Z,100359.72
2022-11-07T16:02:07.950Z,100365.50
2022-11-07T16:04:39.714Z,100373.66
2022-11-07T16:07:19.373Z,100370.84
2022-11-07T16:09:48.989Z,100362.97
2022-11-07T16:12:19.061Z,100370.84
2022-11-07T16:14:47.726Z,100374.84
2022-11-07T16:17:18.053Z,100370.97
2022-11-07T16:19:46.276Z,100374.53
2022-11-07T16:22:16.150Z,100372.97
2022-11-07T16:24:46.917Z,100379.56
2022-11-07T16:27:17.893Z,100377.19
2022-11-07T16:29:51.349Z,100382.66
2022-11-07T16:32:21.120Z,100388.06
2022-11-07T16:34:48.951Z,100379.84
2022-11-07T16:37:19.662Z,100389.00
2022-11-07T16:39:49.089Z,100393.56
2022-11-07T16:42:19.141Z,100395.22
2022-11-07T16:44:49.906Z,100392.28
2022-11-07T16:47:20.152Z,100390.06
2022-11-07T16:49:53.529Z,100398.03
2022-11-07T16:52:28.391Z,100405.19
2022-11-07T16:55:00.423Z,100409.06
2022-11-07T16:57:29.015Z,100404.84
2022-11-07T16:59:59.182Z,100408.09
2022-11-07T17:02:34.448Z,100406.97
2022-11-07T17:05:07.399Z,100409.22
2022-11-07T17:07:35.307Z,100403.22
2022-11-07T17:10:07.552Z,100410.28
2022-11-07T17:12:37.430Z,100411.91
2022-11-07T17:15:11.627Z,100412.81
2022-11-07T17:17:41.369Z,100425.16
2022-11-07T17:20:49.001Z,100423.75
2022-11-07T17:23:12.796Z,100416.75
2022-11-07T17:25:55.120Z,100416.37
2022-11-07T17:28:24.582Z,100416.47
2022-11-07T17:30:53.740Z,100432.66
2022-11-07T17:33:25.027Z,100427.25
2022-11-07T17:35:56.960Z,100428.22
2022-11-07T17:38:27.694Z,100429.75
2022-11-07T17:41:17.781Z,100435.16
2022-11-07T17:43:49.476Z,100435.88
2022-11-07T17:46:30.670Z,100443.03
2022-11-07T17:49:07.431Z,100445.50
2022-11-07T17:51:36.650Z,100444.69
2022-11-07T17:54:08.559Z,100454.94
2022-11-07T17:56:38.611Z,100448.31
2022-11-07T17:59:13.567Z,100446.53
2022-11-07T18:01:44.395Z,100453.87
2022-11-07T18:04:14.262Z,100450.44
2022-11-07T18:06:44.753Z,100441.09
2022-11-07T18:09:19.351Z,100448.31
2022-11-07T18:11:51.467Z,100437.91
2022-11-07T18:14:22.655Z,100439.22
2022-11-07T18:16:52.983Z,100437.72
2022-11-07T18:19:23.466Z,100441.88
2022-11-07T18:21:54.219Z,100444.34
2022-11-07T18:24:25.719Z,100446.13
2022-11-07T18:26:55.824Z,100452.28
2022-11-07T18:29:27.475Z,100450.28
2022-11-07T18:31:57.718Z,100446.53
2022-11-07T18:34:30.316Z,100457.25
2022-11-07T18:37:00.527Z,100454.88
2022-11-07T18:39:31.003Z,100460.13
2022-11-07T18:42:00.925Z,100454.69
2022-11-07T18:44:33.988Z,100450.59
2022-11-07T18:47:06.968Z,100457.53
2022-11-07T18:49:37.707Z,100459.78
2022-11-07T18:52:06.484Z,100450.69
2022-11-07T18:54:36.582Z,100448.00
2022-11-07T18:57:06.238Z,100438.78
2022-11-07T18:59:36.354Z,100438.97
2022-11-07T19:02:05.931Z,100439.59
2022-11-07T19:04:34.826Z,100437.50
2022-11-07T19:07:04.011Z,100436.41
2022-11-07T19:09:34.646Z,100444.94
2022-11-07T19:12:06.674Z,100441.28
2022-11-07T19:14:37.254Z,100444.34
2022-11-07T19:17:06.355Z,100448.19
2022-11-07T19:19:37.089Z,100440.28
2022-11-07T19:22:07.147Z,100451.97
2022-11-07T19:24:40.471Z,100456.44
2022-11-07T19:27:09.345Z,100458.41
2022-11-07T19:29:39.483Z,100467.31
2022-11-07T19:32:09.408Z,100460.19
2022-11-07T19:34:39.834Z,100466.47
2022-11-07T19:37:07.788Z,100457.44
2022-11-07T19:43:54.749Z,100463.06
2022-11-07T19:46:25.255Z,100463.25
2022-11-07T19:48:58.430Z,100460.75
2022-11-07T19:51:26.933Z,100464.31
2022-11-07T19:53:58.609Z,100463.09
2022-11-07T19:56:30.125Z,100468.31
2022-11-07T19:58:59.497Z,100467.09
2022-11-07T20:01:30.344Z,100468.63
2022-11-07T20:04:01.225Z,100475.16
2022-11-07T20:06:35.980Z,100469.25
2022-11-07T20:09:07.716Z,100465.19
2022-11-07T20:11:36.700Z,100469.34
2022-11-07T20:14:05.710Z,100482.69
2022-11-07T20:16:34.358Z,100476.47
2022-11-07T20:19:03.047Z,100481.66
2022-11-07T20:21:31.608Z,100482.56
2022-11-07T20:24:00.088Z,100477.69
2022-11-07T20:26:29.525Z,100487.56
2022-11-07T20:28:58.412Z,100485.34
2022-11-07T20:31:42.560Z,100478.25
2022-11-07T20:34:14.123Z,100485.03
2022-11-07T20:36:44.432Z,100481.22
2022-11-07T20:39:16.676Z,100483.06
2022-11-07T20:41:44.735Z,100482.72
2022-11-07T20:44:14.989Z,100474.06
2022-11-07T20:46:45.395Z,100485.50
2022-11-07T20:49:16.023Z,100483.50
2022-11-07T20:51:44.470Z,100482.22
2022-11-07T20:54:14.635Z,100476.12
2022-11-07T20:56:43.984Z,100479.25
2022-11-07T20:59:12.419Z,100477.06
2022-11-07T21:01:40.300Z,100474.06
2022-11-07T21:04:14.869Z,100476.12
2022-11-07T21:06:43.133Z,100476.34
2022-11-07T21:09:11.059Z,100483.22
2022-11-07T21:11:39.363Z,100481.06
2022-11-07T21:14:07.266Z,100490.50
2022-11-07T21:16:35.301Z,100483.56
2022-11-07T21:19:05.559Z,100490.41
2022-11-07T21:21:34.039Z,100495.56
2022-11-07T21:24:03.144Z,100494.13
2022-11-07T21:26:36.990Z,100496.09
2022-11-07T21:29:06.745Z,100490.78
2022-11-07T21:31:37.514Z,100487.72
2022-11-07T21:34:08.064Z,100493.44
2022-11-07T21:36:35.583Z,100491.00
2022-11-07T21:39:03.755Z,100484.16
2022-11-07T21:41:31.907Z,100497.25
2022-11-07T21:43:59.683Z,100497.69
2022-11-07T21:46:29.444Z,100490.75
2022-11-07T21:48:57.685Z,100492.09
2022-11-07T21:51:30.097Z,100491.19
2022-11-07T21:53:58.874Z,100479.72
2022-11-07T21:56:28.729Z,100488.66
2022-11-07T21:58:58.900Z,100483.09
2022-11-07T22:01:27.773Z,100489.13
2022-11-07T22:04:12.457Z,100483.78
2022-11-07T22:06:43.578Z,100483.50
2022-11-07T22:09:15.365Z,100482.00
2022-11-07T22:11:43.275Z,100488.16
2022-11-07T22:14:21.525Z,100498.81
2022-11-07T22:16:50.542Z,100484.19
2022-11-07T22:19:18.509Z,100485.75
2022-11-07T22:21:46.196Z,100490.41
2022-11-07T22:24:13.525Z,100488.31
2022-11-07T22:26:41.238Z,100484.81
2022-11-07T22:29:08.847Z,100489.62
2022-11-07T22:31:36.408Z,100487.50
2022-11-07T22:34:04.046Z,100486.28
2022-11-07T22:36:31.864Z,100488.06
2022-11-07T22:38:59.672Z,100487.06
2022-11-07T22:41:27.962Z,100485.38
2022-11-07T22:43:56.119Z,100487.84
2022-11-07T22:46:26.471Z,100481.69
2022-11-07T22:48:54.686Z,100485.16
2022-11-07T22:51:28.345Z,100478.22
2022-11-07T22:54:02.068Z,100481.59
2022-11-07T22:56:30.412Z,100482.50
2022-11-07T22:58:58.259Z,100483.81
2022-11-07T23:01:28.183Z,100486.28
2022-11-07T23:03:57.008Z,100479.91
2022-11-07T23:06:26.305Z,100482.50
2022-11-07T23:08:54.188Z,100483.25
2022-11-07T23:14:13.504Z,100481.72
2022-11-07T23:16:44.956Z,100486.53
2022-11-07T23:19:14.418Z,100476.88
2022-11-07T23:21:42.675Z,100493.69
2022-11-07T23:24:10.511Z,100481.94
2022-11-07T23:26:38.433Z,100478.47
2022-11-07T23:29:11.442Z,100482.38
2022-11-07T23:31:40.422Z,100484.72
2022-11-07T23:34:08.773Z,100478.25
2022-11-07T23:36:37.219Z,100480.69
2022-11-07T23:39:07.578Z,100485.97
2022-11-07T23:41:36.268Z,100476.34
2022-11-07T23:44:04.931Z,100486.72
2022-11-07T23:46:52.647Z,100485.53
2022-11-07T23:49:39.413Z,100485.41
2022-11-07T23:52:08.354Z,100478.00
2022-11-07T23:54:55.099Z,100483.63
2022-11-07T23:57:24.335Z,100478.81
